Avalon, California
Current Conditions -  °F | °C
As of 7:51 AM on Sunday 21 Dec 2014 (Local Time) from KAVX Reporting Station
Clear Clear  
Wind Chill: 56°   Ceiling: Unl
Heat Index: 56°   Visibility: 10mi
Dew Point: 51°   Wind: 7mph
Humidity: 84%   Direction: 10°N
Pressure: 30.15"   Gusts: NA
Location:  33.34°N, 118.33°W
Report Text: KAVX 211551Z AUTO 01006KT 10SM CLR 13/11 A3015 RMK AO2 SLP203 T01330106
Loading
Personal Weather Stations






























Interactive Weather Map New forecast layout! Learn more

10-Day Weather Forecast

Advertisements
Track Severe Weather on mobile